TimeEST,TemperatureF,Dew PointF,Humidity,Sea Level PressureIn,VisibilityMPH,Wind Direction,Wind SpeedMPH,Gust SpeedMPH,PrecipitationIn,Events,Conditions,WindDirDegrees,DateUTC
12:53 AM,25.0,21.9,88,30.33,4.0,Calm,Calm,-,N/A,,Clear,0,2013-02-07 05:53:00
1:53 AM,27.0,24.1,89,30.28,5.0,ENE,3.5,-,N/A,,Clear,70,2013-02-07 06:53:00
2:53 AM,28.9,25.0,85,30.25,6.0,East,3.5,-,N/A,,Clear,90,2013-02-07 07:53:00
3:53 AM,28.0,25.0,88,30.25,5.0,Calm,Calm,-,N/A,,Clear,0,2013-02-07 08:53:00
4:53 AM,28.0,25.0,88,30.27,5.0,Calm,Calm,-,N/A,,Clear,0,2013-02-07 09:53:00
5:53 AM,28.9,26.1,89,30.28,6.0,NNE,3.5,-,N/A,,Scattered Clouds,20,2013-02-07 10:53:00
6:53 AM,30.0,26.1,85,30.28,6.0,East,3.5,-,N/A,,Overcast,100,2013-02-07 11:53:00
7:53 AM,30.9,26.1,82,30.26,7.0,East,5.8,-,N/A,,Overcast,90,2013-02-07 12:53:00
8:53 AM,32.0,27.0,82,30.26,8.0,ESE,5.8,-,N/A,,Overcast,120,2013-02-07 13:53:00
9:53 AM,34.0,28.0,79,30.24,8.0,Calm,Calm,-,N/A,,Overcast,0,2013-02-07 14:53:00
10:53 AM,37.0,28.0,70,30.23,10.0,North,4.6,-,N/A,,Clear,10,2013-02-07 15:53:00
11:53 AM,41.0,28.9,62,30.19,10.0,ESE,4.6,-,N/A,,Clear,110,2013-02-07 16:53:00
12:53 PM,46.0,28.9,51,30.14,10.0,Variable,3.5,-,N/A,,Scattered Clouds,0,2013-02-07 17:53:00
1:53 PM,48.0,30.0,50,30.10,10.0,East,3.5,-,N/A,,Scattered Clouds,80,2013-02-07 18:53:00
2:53 PM,48.9,32.0,52,30.08,10.0,NE,4.6,-,N/A,,Overcast,40,2013-02-07 19:53:00
3:53 PM,50.0,33.1,52,30.06,10.0,NE,8.1,-,N/A,,Clear,40,2013-02-07 20:53:00
4:53 PM,48.9,32.0,52,30.04,10.0,ENE,5.8,-,N/A,,Clear,70,2013-02-07 21:53:00
5:53 PM,46.9,30.0,52,30.04,10.0,East,6.9,-,N/A,,Clear,80,2013-02-07 22:53:00
6:53 PM,44.1,30.0,58,30.04,10.0,East,4.6,-,N/A,,Clear,80,2013-02-07 23:53:00
7:53 PM,43.0,30.9,62,30.03,10.0,SE,4.6,-,N/A,,Clear,140,2013-02-08 00:53:00
8:53 PM,43.0,30.9,62,30.01,10.0,SE,8.1,-,N/A,,Clear,140,2013-02-08 01:53:00
9:53 PM,44.1,33.1,65,29.99,10.0,SE,8.1,-,N/A,,Clear,140,2013-02-08 02:53:00
10:53 PM,44.1,33.1,65,29.97,10.0,SE,8.1,-,N/A,,Clear,140,2013-02-08 03:53:00
11:53 PM,44.1,34.0,68,29.96,10.0,SSE,9.2,16.1,N/A,,Clear,150,2013-02-08 04:53:00